sensor_id;sensor_type;location;lat;lon;timestamp;P1;durP1;ratioP1;P2;durP2;ratioP2
21513;SDS011;10918;48.102;11.636;2023-09-08T00:00:51;8.07;;;6.30;;
21513;SDS011;10918;48.102;11.636;2023-09-08T00:03:17;6.47;;;5.63;;
21513;SDS011;10918;48.102;11.636;2023-09-08T00:05:43;7.82;;;5.75;;
21513;SDS011;10918;48.102;11.636;2023-09-08T00:08:09;6.13;;;5.53;;
21513;SDS011;10918;48.102;11.636;2023-09-08T00:10:35;7.07;;;6.05;;
21513;SDS011;10918;48.102;11.636;2023-09-08T00:13:01;6.40;;;5.60;;
21513;SDS011;10918;48.102;11.636;2023-09-08T00:15:27;8.00;;;5.47;;
21513;SDS011;10918;48.102;11.636;2023-09-08T00:17:53;6.45;;;5.85;;
21513;SDS011;10918;48.102;11.636;2023-09-08T00:20:19;6.25;;;5.60;;
21513;SDS011;10918;48.102;11.636;2023-09-08T00:22:45;6.75;;;6.05;;
21513;SDS011;10918;48.102;11.636;2023-09-08T00:25:11;7.40;;;6.00;;
21513;SDS011;10918;48.102;11.636;2023-09-08T00:27:37;6.25;;;5.57;;
21513;SDS011;10918;48.102;11.636;2023-09-08T00:30:03;6.68;;;6.05;;
21513;SDS011;10918;48.102;11.636;2023-09-08T00:32:29;7.50;;;6.00;;
21513;SDS011;10918;48.102;11.636;2023-09-08T00:34:55;6.68;;;5.95;;
21513;SDS011;10918;48.102;11.636;2023-09-08T00:37:21;6.78;;;6.07;;
21513;SDS011;10918;48.102;11.636;2023-09-08T00:39:47;7.47;;;5.78;;
21513;SDS011;10918;48.102;11.636;2023-09-08T00:42:13;6.55;;;5.85;;
21513;SDS011;10918;48.102;11.636;2023-09-08T00:44:39;7.07;;;5.78;;
21513;SDS011;10918;48.102;11.636;2023-09-08T00:47:05;7.20;;;5.82;;
21513;SDS011;10918;48.102;11.636;2023-09-08T00:49:31;8.07;;;6.10;;
21513;SDS011;10918;48.102;11.636;2023-09-08T00:51:57;6.65;;;5.95;;
21513;SDS011;10918;48.102;11.636;2023-09-08T00:54:23;8.23;;;6.50;;
21513;SDS011;10918;48.102;11.636;2023-09-08T00:56:51;6.90;;;6.15;;
21513;SDS011;10918;48.102;11.636;2023-09-08T00:59:21;7.30;;;5.93;;
21513;SDS011;10918;48.102;11.636;2023-09-08T01:01:47;8.35;;;6.47;;
21513;SDS011;10918;48.102;11.636;2023-09-08T01:04:13;7.15;;;5.97;;
21513;SDS011;10918;48.102;11.636;2023-09-08T01:06:39;8.15;;;5.88;;
21513;SDS011;10918;48.102;11.636;2023-09-08T01:09:06;7.78;;;6.03;;
21513;SDS011;10918;48.102;11.636;2023-09-08T01:11:32;7.22;;;6.28;;
21513;SDS011;10918;48.102;11.636;2023-09-08T01:13:58;7.05;;;6.35;;
21513;SDS011;10918;48.102;11.636;2023-09-08T01:16:24;6.72;;;6.13;;
21513;SDS011;10918;48.102;11.636;2023-09-08T01:18:50;6.70;;;5.93;;
21513;SDS011;10918;48.102;11.636;2023-09-08T01:27:06;7.20;;;5.95;;
21513;SDS011;10918;48.102;11.636;2023-09-08T01:29:32;6.90;;;6.28;;
21513;SDS011;10918;48.102;11.636;2023-09-08T01:31:59;7.68;;;6.63;;
21513;SDS011;10918;48.102;11.636;2023-09-08T01:34:25;7.00;;;6.30;;
21513;SDS011;10918;48.102;11.636;2023-09-08T01:36:51;7.88;;;6.75;;
21513;SDS011;10918;48.102;11.636;2023-09-08T01:39:19;8.23;;;6.68;;
21513;SDS011;10918;48.102;11.636;2023-09-08T01:41:45;7.15;;;6.10;;
21513;SDS011;10918;48.102;11.636;2023-09-08T01:44:11;7.20;;;6.47;;
21513;SDS011;10918;48.102;11.636;2023-09-08T01:46:37;7.32;;;6.38;;
21513;SDS011;10918;48.102;11.636;2023-09-08T01:49:04;7.00;;;6.32;;
21513;SDS011;10918;48.102;11.636;2023-09-08T01:51:30;7.18;;;6.47;;
21513;SDS011;10918;48.102;11.636;2023-09-08T01:53:56;7.95;;;6.53;;
21513;SDS011;10918;48.102;11.636;2023-09-08T01:56:22;7.30;;;6.30;;
21513;SDS011;10918;48.102;11.636;2023-09-08T01:58:48;7.10;;;6.38;;
21513;SDS011;10918;48.102;11.636;2023-09-08T02:01:14;7.18;;;6.47;;
21513;SDS011;10918;48.102;11.636;2023-09-08T02:03:40;7.07;;;6.40;;
21513;SDS011;10918;48.102;11.636;2023-09-08T02:06:05;9.55;;;6.65;;
21513;SDS011;10918;48.102;11.636;2023-09-08T02:08:31;8.57;;;6.30;;
21513;SDS011;10918;48.102;11.636;2023-09-08T02:10:57;7.88;;;6.32;;
21513;SDS011;10918;48.102;11.636;2023-09-08T02:13:23;6.97;;;6.15;;
21513;SDS011;10918;48.102;11.636;2023-09-08T02:15:49;7.78;;;6.13;;
21513;SDS011;10918;48.102;11.636;2023-09-08T02:18:16;6.75;;;6.15;;
21513;SDS011;10918;48.102;11.636;2023-09-08T02:20:42;7.82;;;6.00;;
21513;SDS011;10918;48.102;11.636;2023-09-08T02:23:08;6.68;;;5.85;;
21513;SDS011;10918;48.102;11.636;2023-09-08T02:25:34;8.55;;;6.43;;
21513;SDS011;10918;48.102;11.636;2023-09-08T02:28:00;7.22;;;6.25;;
21513;SDS011;10918;48.102;11.636;2023-09-08T02:30:26;6.80;;;5.97;;
21513;SDS011;10918;48.102;11.636;2023-09-08T02:32:52;7.20;;;6.50;;
21513;SDS011;10918;48.102;11.636;2023-09-08T02:35:20;6.63;;;6.00;;
21513;SDS011;10918;48.102;11.636;2023-09-08T02:37:46;6.70;;;6.00;;
21513;SDS011;10918;48.102;11.636;2023-09-08T02:40:12;6.72;;;6.03;;
21513;SDS011;10918;48.102;11.636;2023-09-08T02:42:38;6.47;;;5.80;;
21513;SDS011;10918;48.102;11.636;2023-09-08T02:45:04;10.32;;;6.47;;
21513;SDS011;10918;48.102;11.636;2023-09-08T02:47:30;8.07;;;5.45;;
21513;SDS011;10918;48.102;11.636;2023-09-08T02:49:56;8.27;;;6.00;;
21513;SDS011;10918;48.102;11.636;2023-09-08T02:52:22;7.03;;;6.15;;
21513;SDS011;10918;48.102;11.636;2023-09-08T02:54:48;6.65;;;6.03;;
21513;SDS011;10918;48.102;11.636;2023-09-08T02:57:14;7.47;;;6.53;;
21513;SDS011;10918;48.102;11.636;2023-09-08T02:59:40;6.43;;;5.82;;
21513;SDS011;10918;48.102;11.636;2023-09-08T03:02:06;6.50;;;5.88;;
21513;SDS011;10918;48.102;11.636;2023-09-08T03:04:32;7.00;;;6.03;;
21513;SDS011;10918;48.102;11.636;2023-09-08T03:06:58;7.82;;;5.88;;
21513;SDS011;10918;48.102;11.636;2023-09-08T03:09:23;7.63;;;6.88;;
21513;SDS011;10918;48.102;11.636;2023-09-08T03:11:49;7.68;;;6.38;;
21513;SDS011;10918;48.102;11.636;2023-09-08T03:14:15;8.35;;;5.82;;
21513;SDS011;10918;48.102;11.636;2023-09-08T03:16:41;6.68;;;5.70;;
21513;SDS011;10918;48.102;11.636;2023-09-08T03:19:07;7.15;;;6.30;;
21513;SDS011;10918;48.102;11.636;2023-09-08T03:21:33;6.90;;;6.20;;
21513;SDS011;10918;48.102;11.636;2023-09-08T03:23:59;6.93;;;5.68;;
21513;SDS011;10918;48.102;11.636;2023-09-08T03:26:25;7.30;;;6.22;;
21513;SDS011;10918;48.102;11.636;2023-09-08T03:28:51;6.15;;;5.50;;
21513;SDS011;10918;48.102;11.636;2023-09-08T03:31:17;8.15;;;6.00;;
21513;SDS011;10918;48.102;11.636;2023-09-08T03:33:43;6.70;;;5.95;;
21513;SDS011;10918;48.102;11.636;2023-09-08T03:36:09;7.38;;;5.95;;
21513;SDS011;10918;48.102;11.636;2023-09-08T03:38:35;6.80;;;6.15;;
21513;SDS011;10918;48.102;11.636;2023-09-08T03:41:02;7.07;;;5.70;;
21513;SDS011;10918;48.102;11.636;2023-09-08T03:43:28;7.65;;;5.85;;
21513;SDS011;10918;48.102;11.636;2023-09-08T03:45:56;8.00;;;6.10;;
21513;SDS011;10918;48.102;11.636;2023-09-08T03:48:21;9.18;;;6.22;;
21513;SDS011;10918;48.102;11.636;2023-09-08T03:50:47;8.40;;;6.60;;
21513;SDS011;10918;48.102;11.636;2023-09-08T03:53:13;6.75;;;6.00;;
21513;SDS011;10918;48.102;11.636;2023-09-08T03:55:39;7.85;;;6.25;;
21513;SDS011;10918;48.102;11.636;2023-09-08T03:58:05;6.53;;;5.82;;
21513;SDS011;10918;48.102;11.636;2023-09-08T04:00:31;7.07;;;5.90;;
21513;SDS011;10918;48.102;11.636;2023-09-08T04:02:57;6.90;;;6.22;;
21513;SDS011;10918;48.102;11.636;2023-09-08T04:05:23;7.93;;;6.60;;
21513;SDS011;10918;48.102;11.636;2023-09-08T04:07:49;6.75;;;6.07;;
21513;SDS011;10918;48.102;11.636;2023-09-08T04:10:15;7.30;;;6.43;;
21513;SDS011;10918;48.102;11.636;2023-09-08T04:12:41;8.93;;;7.97;;
21513;SDS011;10918;48.102;11.636;2023-09-08T04:15:08;10.82;;;9.45;;
21513;SDS011;10918;48.102;11.636;2023-09-08T04:17:34;9.57;;;8.60;;
21513;SDS011;10918;48.102;11.636;2023-09-08T04:20:01;7.45;;;6.65;;
21513;SDS011;10918;48.102;11.636;2023-09-08T04:22:29;8.38;;;6.95;;
21513;SDS011;10918;48.102;11.636;2023-09-08T04:24:55;7.45;;;6.75;;
21513;SDS011;10918;48.102;11.636;2023-09-08T04:27:22;8.57;;;6.88;;
21513;SDS011;10918;48.102;11.636;2023-09-08T04:29:48;8.95;;;7.10;;
21513;SDS011;10918;48.102;11.636;2023-09-08T04:32:14;8.30;;;7.28;;
21513;SDS011;10918;48.102;11.636;2023-09-08T04:34:41;8.63;;;6.80;;
21513;SDS011;10918;48.102;11.636;2023-09-08T04:37:07;8.32;;;6.22;;
21513;SDS011;10918;48.102;11.636;2023-09-08T04:39:34;7.32;;;6.63;;
21513;SDS011;10918;48.102;11.636;2023-09-08T04:42:00;8.05;;;7.10;;
21513;SDS011;10918;48.102;11.636;2023-09-08T04:44:26;7.80;;;6.72;;
21513;SDS011;10918;48.102;11.636;2023-09-08T04:46:53;7.50;;;6.50;;
21513;SDS011;10918;48.102;11.636;2023-09-08T04:49:19;8.98;;;6.63;;
21513;SDS011;10918;48.102;11.636;2023-09-08T04:51:45;7.40;;;6.68;;
21513;SDS011;10918;48.102;11.636;2023-09-08T04:54:11;7.43;;;6.72;;
21513;SDS011;10918;48.102;11.636;2023-09-08T04:56:40;8.18;;;6.43;;
21513;SDS011;10918;48.102;11.636;2023-09-08T04:59:07;8.38;;;6.60;;
21513;SDS011;10918;48.102;11.636;2023-09-08T05:01:33;6.85;;;6.20;;
21513;SDS011;10918;48.102;11.636;2023-09-08T05:04:01;8.23;;;6.60;;
21513;SDS011;10918;48.102;11.636;2023-09-08T05:06:27;9.93;;;7.00;;
21513;SDS011;10918;48.102;11.636;2023-09-08T05:08:53;7.35;;;6.53;;
21513;SDS011;10918;48.102;11.636;2023-09-08T05:11:19;8.05;;;6.50;;
21513;SDS011;10918;48.102;11.636;2023-09-08T05:13:46;7.07;;;6.03;;
21513;SDS011;10918;48.102;11.636;2023-09-08T05:16:12;7.10;;;6.38;;
21513;SDS011;10918;48.102;11.636;2023-09-08T05:18:38;7.22;;;6.20;;
21513;SDS011;10918;48.102;11.636;2023-09-08T05:21:05;7.25;;;6.10;;
21513;SDS011;10918;48.102;11.636;2023-09-08T05:23:31;6.47;;;5.88;;
21513;SDS011;10918;48.102;11.636;2023-09-08T05:25:57;7.43;;;6.60;;
21513;SDS011;10918;48.102;11.636;2023-09-08T05:28:23;7.18;;;6.47;;
21513;SDS011;10918;48.102;11.636;2023-09-08T05:30:55;7.43;;;6.68;;
21513;SDS011;10918;48.102;11.636;2023-09-08T05:33:21;7.55;;;6.22;;
21513;SDS011;10918;48.102;11.636;2023-09-08T05:35:47;7.68;;;6.95;;
21513;SDS011;10918;48.102;11.636;2023-09-08T05:38:13;8.10;;;6.32;;
21513;SDS011;10918;48.102;11.636;2023-09-08T05:40:39;7.50;;;6.78;;
21513;SDS011;10918;48.102;11.636;2023-09-08T05:43:05;7.53;;;6.72;;
21513;SDS011;10918;48.102;11.636;2023-09-08T05:45:31;7.50;;;6.80;;
21513;SDS011;10918;48.102;11.636;2023-09-08T05:47:57;7.85;;;7.05;;
21513;SDS011;10918;48.102;11.636;2023-09-08T05:50:24;8.13;;;6.47;;
21513;SDS011;10918;48.102;11.636;2023-09-08T05:52:50;7.85;;;7.15;;
21513;SDS011;10918;48.102;11.636;2023-09-08T05:55:17;8.57;;;7.32;;
21513;SDS011;10918;48.102;11.636;2023-09-08T05:57:43;8.18;;;7.05;;
21513;SDS011;10918;48.102;11.636;2023-09-08T06:00:09;8.20;;;7.40;;
21513;SDS011;10918;48.102;11.636;2023-09-08T06:02:35;7.50;;;6.80;;
21513;SDS011;10918;48.102;11.636;2023-09-08T06:05:01;8.60;;;7.68;;
21513;SDS011;10918;48.102;11.636;2023-09-08T06:07:27;8.60;;;7.05;;
21513;SDS011;10918;48.102;11.636;2023-09-08T06:09:53;9.35;;;6.82;;
21513;SDS011;10918;48.102;11.636;2023-09-08T06:12:19;7.25;;;6.47;;
21513;SDS011;10918;48.102;11.636;2023-09-08T06:14:45;9.10;;;7.40;;
21513;SDS011;10918;48.102;11.636;2023-09-08T06:17:11;7.47;;;6.75;;
21513;SDS011;10918;48.102;11.636;2023-09-08T06:19:37;11.10;;;6.88;;
21513;SDS011;10918;48.102;11.636;2023-09-08T06:22:03;7.35;;;6.65;;
21513;SDS011;10918;48.102;11.636;2023-09-08T06:24:29;10.93;;;7.72;;
21513;SDS011;10918;48.102;11.636;2023-09-08T06:26:55;9.77;;;7.25;;
21513;SDS011;10918;48.102;11.636;2023-09-08T06:29:21;7.97;;;7.18;;
21513;SDS011;10918;48.102;11.636;2023-09-08T06:31:47;8.20;;;7.40;;
21513;SDS011;10918;48.102;11.636;2023-09-08T06:34:13;8.52;;;7.70;;
21513;SDS011;10918;48.102;11.636;2023-09-08T06:36:39;7.85;;;7.13;;
21513;SDS011;10918;48.102;11.636;2023-09-08T06:39:05;8.35;;;7.20;;
21513;SDS011;10918;48.102;11.636;2023-09-08T06:41:31;8.93;;;8.00;;
21513;SDS011;10918;48.102;11.636;2023-09-08T06:43:57;8.30;;;7.47;;
21513;SDS011;10918;48.102;11.636;2023-09-08T06:46:22;9.40;;;7.95;;
21513;SDS011;10918;48.102;11.636;2023-09-08T06:48:48;7.88;;;7.13;;
21513;SDS011;10918;48.102;11.636;2023-09-08T06:51:15;8.35;;;7.55;;
21513;SDS011;10918;48.102;11.636;2023-09-08T06:53:42;8.25;;;7.50;;
21513;SDS011;10918;48.102;11.636;2023-09-08T06:56:08;8.52;;;7.70;;
21513;SDS011;10918;48.102;11.636;2023-09-08T06:58:34;7.95;;;7.25;;
21513;SDS011;10918;48.102;11.636;2023-09-08T07:01:00;9.85;;;7.15;;
21513;SDS011;10918;48.102;11.636;2023-09-08T07:03:26;7.75;;;7.05;;
21513;SDS011;10918;48.102;11.636;2023-09-08T07:05:52;8.70;;;7.80;;
21513;SDS011;10918;48.102;11.636;2023-09-08T07:08:18;8.00;;;7.20;;
21513;SDS011;10918;48.102;11.636;2023-09-08T07:10:45;8.00;;;7.20;;
21513;SDS011;10918;48.102;11.636;2023-09-08T07:13:11;7.97;;;7.22;;
21513;SDS011;10918;48.102;11.636;2023-09-08T07:15:37;7.65;;;6.90;;
21513;SDS011;10918;48.102;11.636;2023-09-08T07:18:03;8.07;;;7.38;;
21513;SDS011;10918;48.102;11.636;2023-09-08T07:20:29;8.05;;;7.35;;
21513;SDS011;10918;48.102;11.636;2023-09-08T07:22:55;12.20;;;9.32;;
21513;SDS011;10918;48.102;11.636;2023-09-08T07:25:21;8.23;;;7.40;;
21513;SDS011;10918;48.102;11.636;2023-09-08T07:27:47;11.23;;;7.50;;
21513;SDS011;10918;48.102;11.636;2023-09-08T07:30:13;8.20;;;7.00;;
21513;SDS011;10918;48.102;11.636;2023-09-08T07:32:39;7.97;;;6.78;;
21513;SDS011;10918;48.102;11.636;2023-09-08T07:35:05;8.55;;;7.15;;
21513;SDS011;10918;48.102;11.636;2023-09-08T07:37:38;12.65;;;10.68;;
21513;SDS011;10918;48.102;11.636;2023-09-08T07:40:04;8.00;;;7.15;;
21513;SDS011;10918;48.102;11.636;2023-09-08T07:42:31;11.38;;;9.70;;
21513;SDS011;10918;48.102;11.636;2023-09-08T07:44:57;7.80;;;7.10;;
21513;SDS011;10918;48.102;11.636;2023-09-08T07:47:23;8.35;;;7.03;;
21513;SDS011;10918;48.102;11.636;2023-09-08T07:49:49;10.95;;;8.50;;
21513;SDS011;10918;48.102;11.636;2023-09-08T07:52:15;7.20;;;6.50;;
21513;SDS011;10918;48.102;11.636;2023-09-08T07:54:41;7.43;;;6.72;;
21513;SDS011;10918;48.102;11.636;2023-09-08T07:57:07;7.68;;;6.53;;
21513;SDS011;10918;48.102;11.636;2023-09-08T07:59:33;8.65;;;6.43;;
21513;SDS011;10918;48.102;11.636;2023-09-08T08:02:00;10.75;;;6.93;;
21513;SDS011;10918;48.102;11.636;2023-09-08T08:04:27;7.47;;;6.38;;
21513;SDS011;10918;48.102;11.636;2023-09-08T08:06:53;9.55;;;7.32;;
21513;SDS011;10918;48.102;11.636;2023-09-08T08:09:19;7.40;;;6.65;;
21513;SDS011;10918;48.102;11.636;2023-09-08T08:11:45;7.60;;;6.57;;
21513;SDS011;10918;48.102;11.636;2023-09-08T08:14:11;7.53;;;6.80;;
21513;SDS011;10918;48.102;11.636;2023-09-08T08:16:37;6.90;;;6.22;;
21513;SDS011;10918;48.102;11.636;2023-09-08T08:19:03;7.88;;;6.50;;
21513;SDS011;10918;48.102;11.636;2023-09-08T08:21:29;7.43;;;6.43;;
21513;SDS011;10918;48.102;11.636;2023-09-08T08:23:55;6.60;;;6.00;;
21513;SDS011;10918;48.102;11.636;2023-09-08T08:26:21;6.97;;;6.22;;
21513;SDS011;10918;48.102;11.636;2023-09-08T08:28:52;7.15;;;5.88;;
21513;SDS011;10918;48.102;11.636;2023-09-08T08:31:18;6.35;;;5.75;;
21513;SDS011;10918;48.102;11.636;2023-09-08T08:33:44;8.00;;;7.25;;
21513;SDS011;10918;48.102;11.636;2023-09-08T08:36:10;7.25;;;6.55;;
21513;SDS011;10918;48.102;11.636;2023-09-08T08:38:36;6.82;;;6.20;;
21513;SDS011;10918;48.102;11.636;2023-09-08T08:41:02;7.00;;;6.30;;
21513;SDS011;10918;48.102;11.636;2023-09-08T08:43:29;7.20;;;6.40;;
21513;SDS011;10918;48.102;11.636;2023-09-08T08:45:56;10.10;;;6.40;;
21513;SDS011;10918;48.102;11.636;2023-09-08T08:48:23;6.68;;;5.97;;
21513;SDS011;10918;48.102;11.636;2023-09-08T08:50:49;7.63;;;6.90;;
21513;SDS011;10918;48.102;11.636;2023-09-08T08:53:17;6.30;;;5.70;;
21513;SDS011;10918;48.102;11.636;2023-09-08T08:55:43;7.00;;;6.10;;
21513;SDS011;10918;48.102;11.636;2023-09-08T08:58:10;7.65;;;6.85;;
21513;SDS011;10918;48.102;11.636;2023-09-08T09:00:36;6.97;;;6.35;;
21513;SDS011;10918;48.102;11.636;2023-09-08T09:03:03;6.88;;;6.13;;
21513;SDS011;10918;48.102;11.636;2023-09-08T09:05:30;6.43;;;5.75;;
21513;SDS011;10918;48.102;11.636;2023-09-08T09:07:57;8.88;;;6.70;;
21513;SDS011;10918;48.102;11.636;2023-09-08T09:10:23;7.65;;;5.80;;
21513;SDS011;10918;48.102;11.636;2023-09-08T09:12:49;6.07;;;5.47;;
21513;SDS011;10918;48.102;11.636;2023-09-08T09:15:15;7.40;;;6.65;;
21513;SDS011;10918;48.102;11.636;2023-09-08T09:17:42;8.57;;;6.97;;
21513;SDS011;10918;48.102;11.636;2023-09-08T09:20:16;7.75;;;5.45;;
21513;SDS011;10918;48.102;11.636;2023-09-08T09:22:43;6.18;;;5.57;;
21513;SDS011;10918;48.102;11.636;2023-09-08T09:25:09;6.70;;;6.10;;
21513;SDS011;10918;48.102;11.636;2023-09-08T09:27:36;7.35;;;5.93;;
21513;SDS011;10918;48.102;11.636;2023-09-08T09:30:04;6.90;;;5.72;;
21513;SDS011;10918;48.102;11.636;2023-09-08T09:32:30;6.28;;;5.78;;
21513;SDS011;10918;48.102;11.636;2023-09-08T09:34:56;8.77;;;6.55;;
21513;SDS011;10918;48.102;11.636;2023-09-08T09:37:26;7.38;;;6.63;;
21513;SDS011;10918;48.102;11.636;2023-09-08T09:39:52;9.80;;;8.90;;
21513;SDS011;10918;48.102;11.636;2023-09-08T09:42:19;5.88;;;5.30;;
21513;SDS011;10918;48.102;11.636;2023-09-08T09:44:49;7.03;;;5.85;;
21513;SDS011;10918;48.102;11.636;2023-09-08T09:47:16;6.53;;;5.85;;
21513;SDS011;10918;48.102;11.636;2023-09-08T09:49:43;10.65;;;8.60;;
21513;SDS011;10918;48.102;11.636;2023-09-08T09:52:11;6.45;;;5.85;;
21513;SDS011;10918;48.102;11.636;2023-09-08T09:54:39;7.15;;;5.80;;
21513;SDS011;10918;48.102;11.636;2023-09-08T09:57:05;6.93;;;6.13;;
21513;SDS011;10918;48.102;11.636;2023-09-08T09:59:31;6.47;;;5.95;;
21513;SDS011;10918;48.102;11.636;2023-09-08T10:01:57;6.20;;;5.60;;
21513;SDS011;10918;48.102;11.636;2023-09-08T10:04:23;5.82;;;5.22;;
21513;SDS011;10918;48.102;11.636;2023-09-08T10:06:50;5.70;;;5.20;;
21513;SDS011;10918;48.102;11.636;2023-09-08T10:09:17;14.90;;;13.65;;
21513;SDS011;10918;48.102;11.636;2023-09-08T10:11:47;8.00;;;7.30;;
21513;SDS011;10918;48.102;11.636;2023-09-08T10:14:17;5.32;;;4.93;;
21513;SDS011;10918;48.102;11.636;2023-09-08T10:16:44;7.00;;;5.40;;
21513;SDS011;10918;48.102;11.636;2023-09-08T10:19:14;6.03;;;5.43;;
21513;SDS011;10918;48.102;11.636;2023-09-08T10:21:41;6.85;;;5.50;;
21513;SDS011;10918;48.102;11.636;2023-09-08T10:24:28;7.80;;;5.38;;
21513;SDS011;10918;48.102;11.636;2023-09-08T10:27:09;6.32;;;5.72;;
21513;SDS011;10918;48.102;11.636;2023-09-08T10:29:39;6.35;;;5.78;;
21513;SDS011;10918;48.102;11.636;2023-09-08T10:32:06;6.18;;;5.63;;
21513;SDS011;10918;48.102;11.636;2023-09-08T10:34:33;6.40;;;5.80;;
21513;SDS011;10918;48.102;11.636;2023-09-08T10:36:59;6.15;;;5.47;;
21513;SDS011;10918;48.102;11.636;2023-09-08T10:39:27;6.20;;;5.50;;
21513;SDS011;10918;48.102;11.636;2023-09-08T10:44:39;5.43;;;5.03;;
21513;SDS011;10918;48.102;11.636;2023-09-08T10:47:05;9.65;;;5.25;;
21513;SDS011;10918;48.102;11.636;2023-09-08T10:49:34;6.03;;;5.30;;
21513;SDS011;10918;48.102;11.636;2023-09-08T10:52:10;5.57;;;4.95;;
21513;SDS011;10918;48.102;11.636;2023-09-08T10:54:49;6.38;;;5.07;;
21513;SDS011;10918;48.102;11.636;2023-09-08T10:57:16;5.65;;;5.15;;
21513;SDS011;10918;48.102;11.636;2023-09-08T10:59:51;6.20;;;5.60;;
21513;SDS011;10918;48.102;11.636;2023-09-08T11:02:33;5.95;;;5.45;;
21513;SDS011;10918;48.102;11.636;2023-09-08T11:05:00;6.00;;;5.50;;
21513;SDS011;10918;48.102;11.636;2023-09-08T11:07:27;5.47;;;4.97;;
21513;SDS011;10918;48.102;11.636;2023-09-08T11:09:53;5.72;;;5.18;;
21513;SDS011;10918;48.102;11.636;2023-09-08T11:12:20;5.82;;;5.30;;
21513;SDS011;10918;48.102;11.636;2023-09-08T11:14:48;5.47;;;4.97;;
21513;SDS011;10918;48.102;11.636;2023-09-08T11:17:14;5.65;;;5.15;;
21513;SDS011;10918;48.102;11.636;2023-09-08T11:19:50;7.05;;;5.50;;
21513;SDS011;10918;48.102;11.636;2023-09-08T11:22:16;5.15;;;4.70;;
21513;SDS011;10918;48.102;11.636;2023-09-08T11:24:43;5.30;;;4.80;;
21513;SDS011;10918;48.102;11.636;2023-09-08T11:27:09;6.28;;;5.50;;
21513;SDS011;10918;48.102;11.636;2023-09-08T11:29:35;5.95;;;5.05;;
21513;SDS011;10918;48.102;11.636;2023-09-08T11:32:02;7.75;;;6.07;;
21513;SDS011;10918;48.102;11.636;2023-09-08T11:34:31;7.78;;;5.93;;
21513;SDS011;10918;48.102;11.636;2023-09-08T11:36:57;5.10;;;4.60;;
21513;SDS011;10918;48.102;11.636;2023-09-08T11:39:23;6.20;;;5.60;;
21513;SDS011;10918;48.102;11.636;2023-09-08T11:41:51;6.13;;;5.53;;
21513;SDS011;10918;48.102;11.636;2023-09-08T11:44:17;6.07;;;4.82;;
21513;SDS011;10918;48.102;11.636;2023-09-08T11:46:44;6.82;;;5.13;;
21513;SDS011;10918;48.102;11.636;2023-09-08T11:49:10;5.95;;;5.45;;
21513;SDS011;10918;48.102;11.636;2023-09-08T11:51:36;6.85;;;6.15;;
21513;SDS011;10918;48.102;11.636;2023-09-08T11:54:03;5.80;;;5.28;;
21513;SDS011;10918;48.102;11.636;2023-09-08T11:56:29;6.28;;;5.65;;
21513;SDS011;10918;48.102;11.636;2023-09-08T11:58:56;9.02;;;6.50;;
21513;SDS011;10918;48.102;11.636;2023-09-08T12:01:22;6.30;;;5.70;;
21513;SDS011;10918;48.102;11.636;2023-09-08T12:03:52;7.65;;;5.70;;
21513;SDS011;10918;48.102;11.636;2023-09-08T12:06:18;6.80;;;5.85;;
21513;SDS011;10918;48.102;11.636;2023-09-08T12:08:44;6.82;;;5.65;;
21513;SDS011;10918;48.102;11.636;2023-09-08T12:11:10;6.45;;;5.72;;
21513;SDS011;10918;48.102;11.636;2023-09-08T12:13:37;5.93;;;5.50;;
21513;SDS011;10918;48.102;11.636;2023-09-08T12:16:16;7.65;;;5.28;;
21513;SDS011;10918;48.102;11.636;2023-09-08T12:18:42;8.88;;;5.85;;
21513;SDS011;10918;48.102;11.636;2023-09-08T12:21:10;6.75;;;5.60;;
21513;SDS011;10918;48.102;11.636;2023-09-08T12:23:46;6.22;;;5.50;;
21513;SDS011;10918;48.102;11.636;2023-09-08T12:26:13;5.97;;;5.47;;
21513;SDS011;10918;48.102;11.636;2023-09-08T12:28:39;8.55;;;5.43;;
21513;SDS011;10918;48.102;11.636;2023-09-08T12:31:05;6.70;;;5.65;;
21513;SDS011;10918;48.102;11.636;2023-09-08T12:33:31;8.05;;;4.85;;
21513;SDS011;10918;48.102;11.636;2023-09-08T12:35:57;6.70;;;5.20;;
21513;SDS011;10918;48.102;11.636;2023-09-08T12:38:23;6.13;;;5.47;;
21513;SDS011;10918;48.102;11.636;2023-09-08T12:40:49;6.40;;;5.10;;
21513;SDS011;10918;48.102;11.636;2023-09-08T12:49:25;6.50;;;5.13;;
21513;SDS011;10918;48.102;11.636;2023-09-08T12:51:51;5.68;;;5.18;;
21513;SDS011;10918;48.102;11.636;2023-09-08T12:54:17;8.27;;;5.60;;
21513;SDS011;10918;48.102;11.636;2023-09-08T12:56:43;7.97;;;5.47;;
21513;SDS011;10918;48.102;11.636;2023-09-08T12:59:09;6.00;;;5.20;;
21513;SDS011;10918;48.102;11.636;2023-09-08T13:01:35;6.15;;;5.53;;
21513;SDS011;10918;48.102;11.636;2023-09-08T13:04:01;6.20;;;5.60;;
21513;SDS011;10918;48.102;11.636;2023-09-08T13:06:27;5.80;;;5.20;;
21513;SDS011;10918;48.102;11.636;2023-09-08T13:08:53;7.70;;;5.85;;
21513;SDS011;10918;48.102;11.636;2023-09-08T13:11:19;5.50;;;4.90;;
21513;SDS011;10918;48.102;11.636;2023-09-08T13:13:45;6.28;;;5.22;;
21513;SDS011;10918;48.102;11.636;2023-09-08T13:16:11;6.90;;;4.97;;
21513;SDS011;10918;48.102;11.636;2023-09-08T13:18:37;6.03;;;4.80;;
21513;SDS011;10918;48.102;11.636;2023-09-08T13:21:06;7.18;;;5.05;;
21513;SDS011;10918;48.102;11.636;2023-09-08T13:23:32;4.90;;;4.53;;
21513;SDS011;10918;48.102;11.636;2023-09-08T13:25:58;7.65;;;4.90;;
21513;SDS011;10918;48.102;11.636;2023-09-08T13:28:23;6.45;;;4.82;;
21513;SDS011;10918;48.102;11.636;2023-09-08T13:30:49;5.18;;;4.68;;
21513;SDS011;10918;48.102;11.636;2023-09-08T13:33:15;4.95;;;4.45;;
21513;SDS011;10918;48.102;11.636;2023-09-08T13:35:41;5.53;;;4.22;;
21513;SDS011;10918;48.102;11.636;2023-09-08T13:38:07;5.13;;;4.15;;
21513;SDS011;10918;48.102;11.636;2023-09-08T13:40:33;4.38;;;3.97;;
21513;SDS011;10918;48.102;11.636;2023-09-08T13:42:59;6.90;;;3.97;;
21513;SDS011;10918;48.102;11.636;2023-09-08T13:45:25;4.57;;;4.18;;
21513;SDS011;10918;48.102;11.636;2023-09-08T13:47:52;4.10;;;3.80;;
21513;SDS011;10918;48.102;11.636;2023-09-08T13:50:18;5.32;;;4.10;;
21513;SDS011;10918;48.102;11.636;2023-09-08T13:52:44;4.75;;;4.32;;
21513;SDS011;10918;48.102;11.636;2023-09-08T13:55:10;5.00;;;4.50;;
21513;SDS011;10918;48.102;11.636;2023-09-08T13:57:36;6.85;;;4.35;;
21513;SDS011;10918;48.102;11.636;2023-09-08T14:00:02;5.85;;;5.43;;
21513;SDS011;10918;48.102;11.636;2023-09-08T14:02:29;5.68;;;4.15;;
21513;SDS011;10918;48.102;11.636;2023-09-08T14:04:55;4.70;;;4.30;;
21513;SDS011;10918;48.102;11.636;2023-09-08T14:07:21;4.47;;;4.07;;
21513;SDS011;10918;48.102;11.636;2023-09-08T14:09:47;6.25;;;5.00;;
21513;SDS011;10918;48.102;11.636;2023-09-08T14:12:12;6.15;;;4.60;;
21513;SDS011;10918;48.102;11.636;2023-09-08T14:14:39;4.43;;;4.10;;
21513;SDS011;10918;48.102;11.636;2023-09-08T14:17:05;5.20;;;4.70;;
21513;SDS011;10918;48.102;11.636;2023-09-08T14:19:31;4.75;;;4.35;;
21513;SDS011;10918;48.102;11.636;2023-09-08T14:21:57;6.18;;;4.82;;
21513;SDS011;10918;48.102;11.636;2023-09-08T14:24:23;5.18;;;4.60;;
21513;SDS011;10918;48.102;11.636;2023-09-08T14:26:49;5.38;;;4.55;;
21513;SDS011;10918;48.102;11.636;2023-09-08T14:29:16;5.28;;;4.60;;
21513;SDS011;10918;48.102;11.636;2023-09-08T14:31:42;6.43;;;4.97;;
21513;SDS011;10918;48.102;11.636;2023-09-08T14:34:08;5.43;;;4.35;;
21513;SDS011;10918;48.102;11.636;2023-09-08T14:36:34;5.78;;;4.65;;
21513;SDS011;10918;48.102;11.636;2023-09-08T14:39:00;6.30;;;4.45;;
21513;SDS011;10918;48.102;11.636;2023-09-08T14:41:26;4.70;;;4.30;;
21513;SDS011;10918;48.102;11.636;2023-09-08T14:43:52;6.35;;;5.00;;